Time;durP1;ratioP1;P1;durP2;ratioP2;P2;SDS_P1;SDS_P2;PMS_P1;PMS_P2;Temp;Humidity;BMP_temperature;BMP_pressure;BME280_temperature;BME280_humidity;BME280_pressure;Samples;Min_cycle;Max_cycle;Signal;HPM_P1;HPM_P2
2021/03/11 00:00:56;;;;;;;6.75;4.10;;;;;;;4.41;43.73;102215.39;1779795;80;21156;-46
2021/03/11 00:03:25;;;;;;;9.28;4.03;;;;;;;4.38;43.55;102215.33;1749751;82;21162;-46
2021/03/11 00:05:53;;;;;;;6.22;3.80;;;;;;;4.38;43.52;102214.44;1747864;82;21192;-46
2021/03/11 00:08:21;;;;;;;5.30;3.77;;;;;;;4.35;43.58;102204.92;1774533;80;21226;-46
2021/03/11 00:10:48;;;;;;;7.47;4.12;;;;;;;4.31;43.84;102210.83;1774992;81;21176;-45
2021/03/11 00:13:16;;;;;;;7.05;4.37;;;;;;;4.30;43.41;102206.52;1763429;81;21180;-46
2021/03/11 00:15:44;;;;;;;5.22;4.15;;;;;;;4.30;43.61;102203.95;1740334;82;21598;-46
2021/03/11 00:18:14;;;;;;;8.28;3.45;;;;;;;4.32;43.22;102202.28;1697548;84;21169;-46
2021/03/11 00:20:42;;;;;;;9.20;4.30;;;;;;;4.34;43.36;102198.04;1733684;82;21312;-46
2021/03/11 00:23:12;;;;;;;5.60;3.80;;;;;;;4.35;42.80;102195.91;1694564;84;21220;-45
2021/03/11 00:25:40;;;;;;;4.42;3.60;;;;;;;4.32;42.39;102199.70;1728760;82;21591;-46
2021/03/11 00:28:08;;;;;;;6.50;3.92;;;;;;;4.31;42.41;102191.50;1762071;81;21141;-46
2021/03/11 00:30:36;;;;;;;6.90;4.08;;;;;;;4.32;42.38;102195.84;1760556;81;21149;-45
2021/03/11 00:33:04;;;;;;;6.87;4.10;;;;;;;4.32;42.12;102197.53;1728120;82;21296;-46
2021/03/11 00:35:32;;;;;;;3.90;3.40;;;;;;;4.33;42.12;102199.30;1697405;84;21189;-46
2021/03/11 00:38:01;;;;;;;5.20;3.35;;;;;;;4.33;42.23;102197.56;1728577;82;21292;-45
2021/03/11 00:40:29;;;;;;;9.13;3.80;;;;;;;4.33;42.11;102191.56;1699895;84;21165;-46
2021/03/11 00:42:57;;;;;;;7.67;5.22;;;;;;;4.34;41.75;102201.02;1767943;81;21200;-45
2021/03/11 00:45:25;;;;;;;4.22;3.65;;;;;;;4.32;41.94;102195.84;1765810;81;21328;-46
2021/03/11 00:47:52;;;;;;;6.67;3.92;;;;;;;4.31;41.88;102179.91;1734511;82;21125;-46
2021/03/11 00:50:22;;;;;;;6.33;3.47;;;;;;;4.32;41.98;102188.11;1769008;81;21153;-46
2021/03/11 00:52:51;;;;;;;6.97;4.60;;;;;;;4.26;42.25;102184.08;1740421;82;21212;-46
2021/03/11 00:55:21;;;;;;;6.47;4.58;;;;;;;4.14;42.46;102188.47;1757080;81;21129;-45
2021/03/11 00:57:50;;;;;;;6.33;4.05;;;;;;;4.14;42.77;102183.77;1777068;81;21165;-45
2021/03/11 01:00:21;;;;;;;7.78;4.28;;;;;;;4.30;42.68;102175.60;1769596;80;21121;-46
2021/03/11 01:02:58;;;;;;;6.28;3.95;;;;;;;4.38;42.35;102171.52;1780959;79;22969;-46
2021/03/11 01:05:28;;;;;;;4.85;3.85;;;;;;;4.35;42.39;102172.71;1740320;82;21144;-46
2021/03/11 01:07:58;;;;;;;10.45;4.42;;;;;;;4.33;42.48;102167.94;1731577;82;21124;-46
2021/03/11 01:10:26;;;;;;;4.78;3.60;;;;;;;4.34;42.49;102162.37;1742860;82;21298;-46
2021/03/11 01:12:54;;;;;;;5.60;3.55;;;;;;;4.36;42.46;102171.02;1735759;82;21148;-46
2021/03/11 01:15:22;;;;;;;4.53;3.50;;;;;;;4.38;42.45;102170.23;1746837;82;21144;-46
2021/03/11 01:17:50;;;;;;;7.47;3.90;;;;;;;4.38;42.28;102163.78;1744531;82;21167;-46
2021/03/11 01:20:19;;;;;;;5.72;3.77;;;;;;;4.40;42.09;102175.41;1733321;82;21183;-46
2021/03/11 01:22:47;;;;;;;6.97;4.10;;;;;;;4.38;42.10;102163.78;1740848;82;21185;-46
2021/03/11 01:25:15;;;;;;;6.30;4.15;;;;;;;4.37;41.86;102168.91;1737728;82;21327;-46
2021/03/11 01:27:43;;;;;;;5.87;3.52;;;;;;;4.33;41.64;102165.36;1734897;82;21148;-46
2021/03/11 01:30:15;;;;;;;6.95;4.20;;;;;;;4.33;41.92;102161.48;1741262;81;21608;-46
2021/03/11 01:32:43;;;;;;;6.80;4.90;;;;;;;4.31;41.93;102156.72;1729921;82;21148;-46
2021/03/11 01:35:13;;;;;;;5.08;3.62;;;;;;;4.29;42.46;102156.21;1736318;82;21358;-46
2021/03/11 01:37:40;;;;;;;6.42;3.83;;;;;;;4.28;42.62;102155.37;1738277;82;22478;-46
2021/03/11 01:40:10;;;;;;;8.43;4.30;;;;;;;4.27;42.20;102148.86;1737916;82;21576;-46
2021/03/11 01:42:37;;;;;;;7.30;3.87;;;;;;;4.26;42.01;102142.86;1739369;82;21636;-46
2021/03/11 01:45:08;;;;;;;6.12;3.98;;;;;;;4.27;42.48;102148.86;1740483;82;21133;-46
2021/03/11 01:47:36;;;;;;;6.53;3.87;;;;;;;4.26;42.07;102152.28;1734745;82;21603;-46
2021/03/11 01:50:07;;;;;;;5.35;4.33;;;;;;;4.25;42.11;102151.41;1743417;82;21136;-46
2021/03/11 01:52:36;;;;;;;5.72;4.05;;;;;;;4.22;42.39;102151.34;1731583;82;21188;-46
2021/03/11 01:55:06;;;;;;;7.30;3.98;;;;;;;4.19;42.50;102151.25;1744478;82;21160;-46
2021/03/11 01:57:34;;;;;;;6.45;4.55;;;;;;;4.18;42.13;102157.25;1734262;82;21137;-46
2021/03/11 02:00:07;;;;;;;6.37;4.60;;;;;;;4.17;42.54;102162.34;1739912;82;21148;-46
2021/03/11 02:02:45;;;;;;;6.85;4.62;;;;;;;4.16;42.74;102157.62;1748856;81;21161;-46
2021/03/11 02:05:17;;;;;;;7.62;4.05;;;;;;;4.18;42.85;102155.96;1715915;83;21185;-46
2021/03/11 02:07:45;;;;;;;10.08;4.40;;;;;;;4.18;42.78;102162.41;1686244;85;21200;-46
2021/03/11 02:10:19;;;;;;;7.85;4.33;;;;;;;4.15;42.75;102159.73;1693675;85;21181;-46
2021/03/11 02:13:12;;;;;;;7.25;3.75;;;;;;;4.17;42.93;102166.20;1693297;85;21184;-46
2021/03/11 02:16:09;;;;;;;6.60;4.22;;;;;;;4.24;42.65;102163.84;1771634;79;22938;-46
2021/03/11 02:18:49;;;;;;;8.28;4.45;;;;;;;4.20;42.54;102167.59;1738649;82;21109;-46
2021/03/11 02:21:25;;;;;;;9.55;4.90;;;;;;;4.20;42.69;102165.01;1736578;82;21136;-46
2021/03/11 02:24:20;;;;;;;7.00;4.35;;;;;;;4.20;43.17;102163.31;1738060;82;21125;-46
2021/03/11 02:27:26;;;;;;;6.65;4.45;;;;;;;4.21;43.46;102157.31;1740944;82;21596;-47
2021/03/11 02:29:54;;;;;;;8.18;4.97;;;;;;;4.20;43.10;102163.31;1661133;85;21334;-46
2021/03/11 02:32:23;;;;;;;6.62;4.87;;;;;;;4.17;43.00;102165.80;1627429;86;21302;-46
2021/03/11 02:34:55;;;;;;;12.40;5.53;;;;;;;4.15;43.17;102162.30;1652842;86;21193;-46
2021/03/11 02:37:42;;;;;;;7.87;4.80;;;;;;;4.17;43.50;102159.35;1771450;79;23524;-46
2021/03/11 02:40:23;;;;;;;7.13;4.97;;;;;;;4.09;42.71;102157.88;1737960;81;21274;-46
2021/03/11 02:42:52;;;;;;;8.10;4.85;;;;;;;4.06;42.89;102159.47;1738041;82;21588;-46
2021/03/11 02:45:28;;;;;;;7.30;4.25;;;;;;;4.02;42.93;102158.94;1733738;81;21164;-46
2021/03/11 02:48:02;;;;;;;6.42;4.50;;;;;;;4.00;42.76;102166.63;1706991;83;21600;-46
2021/03/11 02:50:31;;;;;;;7.78;4.45;;;;;;;4.00;42.75;102164.45;1702901;83;21244;-46
2021/03/11 02:53:04;;;;;;;6.33;4.62;;;;;;;4.00;42.74;102164.45;1675032;83;21187;-46
2021/03/11 02:55:32;;;;;;;7.37;4.22;;;;;;;4.00;42.75;102161.87;1699010;83;21651;-46
2021/03/11 02:58:01;;;;;;;8.10;4.58;;;;;;;3.99;42.80;102162.73;1701906;83;21185;-46
2021/03/11 03:00:30;;;;;;;6.35;4.15;;;;;;;3.97;42.51;102164.39;1697389;83;21184;-46
2021/03/11 03:02:58;;;;;;;8.25;5.25;;;;;;;3.97;42.33;102154.09;1712041;83;21132;-46
2021/03/11 03:05:28;;;;;;;9.58;4.87;;;;;;;3.96;41.90;102162.63;1686152;83;21620;-45
2021/03/11 03:07:56;;;;;;;7.22;4.37;;;;;;;3.94;42.06;102162.59;1691392;83;21216;-46
2021/03/11 03:10:28;;;;;;;6.20;4.10;;;;;;;3.94;41.84;102169.45;1683873;83;21218;-46
2021/03/11 03:12:58;;;;;;;6.12;3.52;;;;;;;3.92;42.32;102174.97;1701705;83;21184;-46
2021/03/11 03:15:26;;;;;;;9.98;4.42;;;;;;;3.92;41.89;102178.83;1703716;83;21216;-45
2021/03/11 03:17:54;;;;;;;8.58;4.75;;;;;;;3.90;41.58;102176.22;1703655;83;21121;-46
2021/03/11 03:20:24;;;;;;;6.35;4.58;;;;;;;3.89;41.83;102176.19;1676776;85;21168;-46
2021/03/11 03:22:52;;;;;;;7.60;4.42;;;;;;;3.90;41.99;102183.95;1689166;83;21160;-46
2021/03/11 03:25:22;;;;;;;9.88;5.10;;;;;;;3.89;41.44;102181.34;1695242;82;21180;-46
2021/03/11 03:27:50;;;;;;;6.72;3.70;;;;;;;3.89;41.34;102183.91;1740581;81;21293;-46
2021/03/11 03:30:20;;;;;;;7.95;4.35;;;;;;;3.87;40.87;102178.73;1744616;82;21152;-46
2021/03/11 03:32:47;;;;;;;12.53;4.10;;;;;;;3.85;41.12;102174.36;1738278;82;21148;-46
2021/03/11 03:35:17;;;;;;;11.03;4.55;;;;;;;3.85;41.76;102175.64;1738735;81;21307;-46
2021/03/11 03:37:45;;;;;;;4.67;3.62;;;;;;;3.83;41.33;102178.59;1741336;82;21584;-46
2021/03/11 03:40:13;;;;;;;9.55;4.95;;;;;;;3.83;41.21;102175.58;1739206;82;21188;-46
2021/03/11 03:42:49;;;;;;;8.65;3.75;;;;;;;3.82;41.40;102170.39;1739307;82;21302;-46
2021/03/11 03:45:28;;;;;;;7.28;3.95;;;;;;;3.80;40.89;102168.20;1737695;82;21149;-46
2021/03/11 03:47:57;;;;;;;6.47;4.25;;;;;;;3.77;41.30;102175.85;1743745;82;21132;-46
2021/03/11 03:50:24;;;;;;;6.62;4.58;;;;;;;3.76;41.50;102174.97;1733458;82;21125;-46
2021/03/11 03:52:53;;;;;;;8.85;4.35;;;;;;;3.73;41.47;102174.87;1711987;82;21153;-46
2021/03/11 03:55:21;;;;;;;7.15;4.25;;;;;;;3.70;41.28;102176.49;1712251;82;21152;-46
2021/03/11 03:57:52;;;;;;;8.23;4.28;;;;;;;3.69;41.40;102169.61;1738511;82;21106;-46
2021/03/11 04:00:23;;;;;;;6.00;3.40;;;;;;;3.68;41.07;102184.17;1732558;82;21144;-46
2021/03/11 04:02:55;;;;;;;6.57;3.77;;;;;;;3.68;40.32;102177.74;1731278;82;21164;-46
2021/03/11 04:05:23;;;;;;;9.43;5.00;;;;;;;3.69;40.42;102179.47;1734190;82;21140;-46
2021/03/11 04:07:52;;;;;;;7.78;4.58;;;;;;;3.72;41.23;102192.85;1731601;81;21184;-46
2021/03/11 04:10:20;;;;;;;9.38;3.95;;;;;;;3.72;41.37;102189.87;1737612;81;21167;-46
2021/03/11 04:12:48;;;;;;;5.25;3.65;;;;;;;3.72;40.86;102188.98;1739037;81;21561;-46
2021/03/11 04:15:17;;;;;;;9.18;4.75;;;;;;;3.73;41.09;102185.60;1735902;82;21286;-46
2021/03/11 04:17:45;;;;;;;7.42;4.28;;;;;;;3.74;41.13;102196.34;1740823;82;21177;-46
2021/03/11 04:20:13;;;;;;;6.03;3.55;;;;;;;3.73;40.74;102198.47;1733983;82;21604;-46
2021/03/11 04:22:41;;;;;;;11.63;3.62;;;;;;;3.73;40.64;102190.75;1738874;81;21587;-46
2021/03/11 04:25:09;;;;;;;6.97;3.67;;;;;;;3.71;40.55;102192.41;1734993;82;21124;-46
2021/03/11 04:27:37;;;;;;;4.97;3.72;;;;;;;3.70;40.70;102190.24;1740811;82;21172;-46
2021/03/11 04:30:07;;;;;;;6.95;3.65;;;;;;;3.71;41.22;102189.39;1723874;82;21734;-45
2021/03/11 04:32:36;;;;;;;5.92;3.90;;;;;;;3.73;41.78;102192.04;1751018;81;21231;-46
2021/03/11 04:35:08;;;;;;;6.28;3.65;;;;;;;3.74;41.44;102193.77;1735745;82;21171;-46
2021/03/11 04:37:39;;;;;;;7.58;3.77;;;;;;;3.75;41.72;102192.95;1697744;83;21152;-46
2021/03/11 04:40:08;;;;;;;8.10;4.15;;;;;;;3.74;41.57;102192.08;1738711;82;21202;-46
2021/03/11 04:42:36;;;;;;;8.08;4.00;;;;;;;3.87;41.15;102189.44;1742976;82;21658;-46
2021/03/11 04:45:06;;;;;;;7.03;3.85;;;;;;;3.89;41.97;102196.78;1737356;82;21171;-45
2021/03/11 04:47:35;;;;;;;7.72;4.35;;;;;;;3.92;42.31;102199.43;1737972;82;21139;-46
2021/03/11 04:50:05;;;;;;;6.83;3.75;;;;;;;3.93;42.85;102194.75;1714657;82;21183;-46
2021/03/11 04:52:36;;;;;;;7.55;4.30;;;;;;;3.96;42.67;102204.72;1738363;82;21249;-46
2021/03/11 04:55:05;;;;;;;7.53;4.67;;;;;;;3.97;42.56;102204.31;1738695;82;21171;-46
2021/03/11 04:57:33;;;;;;;6.25;3.70;;;;;;;3.99;42.27;102213.83;1735885;82;21171;-46
2021/03/11 05:00:02;;;;;;;4.92;3.90;;;;;;;4.03;42.75;102216.06;1727330;82;21571;-46
2021/03/11 05:02:33;;;;;;;7.47;4.10;;;;;;;4.06;42.70;102216.14;1732013;82;21196;-46
2021/03/11 05:05:05;;;;;;;;;;;;;;;4.10;42.74;102218.00;1700877;84;21151;-44
2021/03/11 05:07:32;;;;;;;6.05;4.03;;;;;;;3.91;43.01;102214.03;1700729;84;20124;-46
2021/03/11 05:10:01;;;;;;;6.75;3.92;;;;;;;3.87;42.97;102219.92;1700844;84;21172;-47
2021/03/11 05:12:29;;;;;;;7.40;4.53;;;;;;;3.86;43.67;102220.74;1700769;84;21207;-47
2021/03/11 05:14:56;;;;;;;8.75;5.22;;;;;;;3.86;44.45;102227.18;1702539;84;21159;-46
2021/03/11 05:17:24;;;;;;;7.97;5.67;;;;;;;3.90;44.49;102226.84;1703573;84;21164;-47
2021/03/11 05:19:52;;;;;;;7.10;5.40;;;;;;;3.92;44.85;102233.78;1660205;86;21206;-47
2021/03/11 05:22:21;;;;;;;8.23;4.30;;;;;;;3.95;44.30;102232.61;1658151;86;21190;-45
2021/03/11 05:24:50;;;;;;;6.55;4.60;;;;;;;3.96;44.27;102235.62;1702380;84;21317;-45
2021/03/11 05:27:19;;;;;;;8.10;5.07;;;;;;;3.99;44.69;102229.28;1641944;87;21142;-48
2021/03/11 05:29:49;;;;;;;6.05;4.40;;;;;;;3.99;45.19;102237.02;1691002;84;21553;-47
2021/03/11 05:32:18;;;;;;;9.08;5.37;;;;;;;3.98;44.83;102236.53;1660705;86;21631;-46
2021/03/11 05:34:46;;;;;;;7.58;5.55;;;;;;;3.98;44.80;102245.95;1660373;86;21182;-47
2021/03/11 05:37:15;;;;;;;7.70;5.33;;;;;;;3.96;45.22;102243.34;1722086;82;21114;-47
2021/03/11 05:39:42;;;;;;;8.33;5.37;;;;;;;3.96;45.48;102237.31;1726459;82;21184;-47
2021/03/11 05:42:11;;;;;;;9.75;5.53;;;;;;;3.96;45.92;102254.94;1726629;82;21173;-47
2021/03/11 05:44:38;;;;;;;8.88;5.50;;;;;;;3.98;45.70;102257.14;1727422;82;21166;-46
2021/03/11 05:47:07;;;;;;;9.25;5.67;;;;;;;4.02;45.67;102260.66;1731075;82;21570;-47
2021/03/11 05:49:35;;;;;;;8.80;5.55;;;;;;;4.05;45.60;102260.77;1725675;82;21141;-46
2021/03/11 05:52:04;;;;;;;13.78;5.70;;;;;;;4.09;45.65;102256.16;1724009;82;21149;-46
2021/03/11 05:54:31;;;;;;;8.05;5.15;;;;;;;4.10;45.78;102266.94;1724849;82;21145;-46
2021/03/11 05:57:01;;;;;;;10.65;6.47;;;;;;;4.13;45.95;102256.70;1681383;82;21331;-46
2021/03/11 05:59:29;;;;;;;10.20;5.50;;;;;;;4.18;45.98;102261.99;1722382;82;21160;-47
2021/03/11 06:01:58;;;;;;;11.63;6.53;;;;;;;4.22;45.68;102262.12;1723382;82;21137;-45
2021/03/11 06:04:26;;;;;;;5.58;4.97;;;;;;;4.25;45.83;102271.21;1714489;82;21577;-47
2021/03/11 06:06:55;;;;;;;8.33;5.58;;;;;;;4.26;45.43;102279.41;1726475;82;21187;-46
2021/03/11 06:09:25;;;;;;;9.50;6.00;;;;;;;4.28;45.50;102276.47;1727435;82;21134;-48
2021/03/11 06:11:53;;;;;;;9.40;5.90;;;;;;;4.28;45.67;102283.31;1726998;82;21286;-46
2021/03/11 06:14:21;;;;;;;13.45;5.42;;;;;;;4.29;45.83;102279.48;1723382;82;21180;-47
2021/03/11 06:17:00;;;;;;;10.63;6.40;;;;;;;4.34;45.85;102281.78;1694558;82;21302;-46
2021/03/11 06:19:29;;;;;;;12.63;6.47;;;;;;;4.38;45.62;102291.75;1733233;82;21141;-46
2021/03/11 06:21:57;;;;;;;10.68;6.00;;;;;;;4.43;45.57;102292.77;1727432;82;21145;-46
2021/03/11 06:24:25;;;;;;;11.08;7.00;;;;;;;4.47;45.50;102300.60;1727103;82;21576;-47
2021/03/11 06:26:54;;;;;;;10.15;6.10;;;;;;;4.52;45.54;102302.91;1724659;82;21169;-46
2021/03/11 06:29:40;;;;;;;7.08;6.00;;;;;;;4.62;45.72;102307.47;1726302;82;21160;-47
2021/03/11 06:32:09;;;;;;;9.80;6.33;;;;;;;4.71;45.35;102311.60;1725358;82;21640;-46
2021/03/11 06:34:43;;;;;;;9.03;6.10;;;;;;;4.77;44.80;102311.76;1726689;82;21165;-48
2021/03/11 06:37:13;;;;;;;9.25;6.62;;;;;;;4.83;44.36;102317.08;1732908;81;21310;-47
2021/03/11 06:39:44;;;;;;;8.10;6.37;;;;;;;4.86;44.33;102319.72;1702968;83;21175;-47
2021/03/11 06:42:24;;;;;;;7.90;5.62;;;;;;;4.89;43.99;102324.97;1818642;78;21690;-46
2021/03/11 06:44:52;;;;;;;9.38;5.72;;;;;;;4.89;44.87;102330.12;1778141;80;21536;-46
2021/03/11 06:47:21;;;;;;;8.83;5.58;;;;;;;4.94;43.76;102331.14;1776073;80;21148;-46
2021/03/11 06:50:02;;;;;;;8.90;5.60;;;;;;;4.94;43.23;102323.41;1756840;80;21107;-46
2021/03/11 06:52:30;;;;;;;11.50;6.70;;;;;;;4.97;42.87;102332.05;1774350;80;21155;-46
2021/03/11 06:55:03;;;;;;;9.10;6.17;;;;;;;4.98;43.28;102322.17;1771776;80;21159;-46
2021/03/11 06:57:34;;;;;;;9.03;5.70;;;;;;;5.07;43.33;102336.61;1780767;80;21160;-46
2021/03/11 07:00:18;;;;;;;7.35;5.35;;;;;;;5.15;42.20;102331.23;1727188;83;21157;-46
2021/03/11 07:02:58;;;;;;;6.53;5.45;;;;;;;5.21;41.09;102332.26;1758651;81;21164;-46
2021/03/11 07:05:28;;;;;;;9.83;5.10;;;;;;;5.32;41.61;102340.23;1748055;81;21322;-46
2021/03/11 07:08:16;;;;;;;8.23;6.35;;;;;;;5.46;40.60;102332.44;1748959;81;21168;-46
2021/03/11 07:10:47;;;;;;;7.17;5.67;;;;;;;5.57;40.74;102333.55;1752170;81;21168;-46
2021/03/11 07:13:15;;;;;;;9.00;5.28;;;;;;;5.68;40.02;102345.02;1742071;81;21188;-46
2021/03/11 07:15:44;;;;;;;6.33;4.50;;;;;;;5.72;38.90;102341.66;1740644;81;21152;-46
2021/03/11 07:18:24;;;;;;;11.20;4.70;;;;;;;5.72;38.01;102341.66;1737023;81;21116;-46
2021/03/11 07:20:52;;;;;;;9.33;4.22;;;;;;;5.74;38.05;102343.45;1755959;81;21588;-46
2021/03/11 07:23:20;;;;;;;6.40;3.95;;;;;;;5.74;38.00;102342.56;1740066;81;21572;-46
2021/03/11 07:25:48;;;;;;;5.87;4.25;;;;;;;5.76;37.79;102353.81;1742877;81;21160;-47
2021/03/11 07:28:25;;;;;;;5.22;3.52;;;;;;;5.71;37.86;102357.98;1725253;83;21287;-46
2021/03/11 07:30:58;;;;;;;7.35;3.47;;;;;;;5.64;38.02;102352.23;1741163;81;21187;-48
2021/03/11 07:33:31;;;;;;;9.35;4.40;;;;;;;5.57;38.66;102347.75;1739899;81;21120;-47
2021/03/11 07:36:09;;;;;;;6.62;4.10;;;;;;;5.58;38.58;102353.38;1812774;79;23431;-47
2021/03/11 07:38:37;;;;;;;5.33;4.35;;;;;;;5.50;39.39;102360.08;1788480;80;21168;-46
2021/03/11 07:41:06;;;;;;;7.30;4.22;;;;;;;5.46;38.54;102355.67;1792546;80;21207;-47
2021/03/11 07:43:36;;;;;;;7.23;4.87;;;;;;;5.42;38.42;102353.86;1783864;80;21128;-47
2021/03/11 07:46:06;;;;;;;6.15;3.47;;;;;;;5.41;39.43;102352.09;1727578;83;21536;-45
2021/03/11 07:48:34;;;;;;;5.65;3.80;;;;;;;5.43;38.48;102350.42;1714490;83;21310;-46
2021/03/11 07:51:04;;;;;;;6.42;3.90;;;;;;;5.46;38.54;102340.19;1751401;81;21298;-47
2021/03/11 07:53:32;;;;;;;5.97;4.08;;;;;;;5.50;38.37;102339.42;1724135;83;21168;-47
2021/03/11 07:56:01;;;;;;;7.50;4.30;;;;;;;5.52;38.39;102348.92;1715076;83;21184;-47
2021/03/11 07:58:30;;;;;;;4.78;3.33;;;;;;;5.52;36.94;102349.36;1708855;83;21361;-47
2021/03/11 08:01:04;;;;;;;5.80;3.55;;;;;;;5.50;37.57;102345.43;1737350;82;21176;-47
2021/03/11 08:03:33;;;;;;;5.55;3.60;;;;;;;5.54;37.53;102348.98;1701813;83;21635;-48
2021/03/11 08:06:25;;;;;;;7.40;3.65;;;;;;;5.56;37.13;102342.14;1705284;83;21170;-47
2021/03/11 08:08:59;;;;;;;9.95;4.00;;;;;;;5.65;37.09;102348.39;1814927;79;22956;-47
2021/03/11 08:11:36;;;;;;;5.58;3.42;;;;;;;5.64;36.54;102341.50;1790185;80;21286;-48
2021/03/11 08:14:24;;;;;;;6.40;3.42;;;;;;;5.69;36.38;102340.28;1786092;80;21120;-47
2021/03/11 08:16:53;;;;;;;5.67;2.70;;;;;;;5.69;34.96;102341.58;1778374;80;21147;-47
2021/03/11 08:19:43;;;;;;;6.50;2.92;;;;;;;5.69;35.56;102344.16;1786766;80;21176;-47
2021/03/11 08:22:11;;;;;;;5.30;2.87;;;;;;;5.71;36.01;102350.23;1782214;80;21604;-46
2021/03/11 08:24:47;;;;;;;5.75;3.37;;;;;;;5.73;35.54;102349.84;1785358;80;21168;-47
2021/03/11 08:27:38;;;;;;;7.20;3.50;;;;;;;5.77;35.47;102352.95;1778952;80;21149;-46
2021/03/11 08:30:07;;;;;;;5.40;3.62;;;;;;;5.79;34.95;102349.98;1768055;80;21148;-48
2021/03/11 08:32:51;;;;;;;5.30;3.00;;;;;;;6.01;34.77;102357.44;1785365;80;21156;-47
2021/03/11 08:35:45;;;;;;;5.47;3.30;;;;;;;6.02;34.22;102359.17;1777230;80;21166;-48
2021/03/11 08:38:27;;;;;;;5.33;2.75;;;;;;;6.04;33.89;102367.83;1752511;81;21570;-48
2021/03/11 08:41:03;;;;;;;6.70;3.02;;;;;;;6.09;33.90;102358.89;1713939;83;21172;-48
2021/03/11 08:43:41;;;;;;;7.15;3.52;;;;;;;6.13;34.31;102369.34;1713006;83;21147;-48
2021/03/11 08:46:19;;;;;;;5.75;3.67;;;;;;;6.15;34.03;102372.83;1739953;82;21166;-47
2021/03/11 08:48:58;;;;;;;5.50;3.58;;;;;;;6.16;33.89;102374.55;1714090;83;21148;-47
2021/03/11 08:51:33;;;;;;;7.40;3.15;;;;;;;6.19;34.22;102377.22;1727513;83;21181;-47
2021/03/11 08:54:06;;;;;;;6.47;3.52;;;;;;;6.22;34.26;102374.69;1713841;83;21572;-45
2021/03/11 08:56:37;;;;;;;4.12;3.17;;;;;;;6.23;33.61;102368.69;1709825;83;21183;-47
2021/03/11 08:59:14;;;;;;;8.05;3.45;;;;;;;6.23;33.98;102376.45;1728880;82;21163;-47
2021/03/11 09:01:53;;;;;;;7.33;3.05;;;;;;;6.23;34.23;102382.91;1654501;86;21196;-46
2021/03/11 09:04:39;;;;;;;6.42;3.30;;;;;;;6.25;34.58;102399.33;1696055;84;21606;-46
2021/03/11 09:07:31;;;;;;;12.85;6.67;;;;;;;6.30;34.43;102386.09;1819885;79;22927;-46
2021/03/11 09:09:59;;;;;;;7.17;4.17;;;;;;;6.25;34.08;102390.27;1783987;80;21170;-46
2021/03/11 09:12:37;;;;;;;6.35;3.83;;;;;;;6.25;34.82;102391.56;1785575;80;21116;-46
2021/03/11 09:15:08;;;;;;;6.25;3.42;;;;;;;6.24;35.28;102404.47;1774500;80;21152;-46
2021/03/11 09:17:37;;;;;;;5.42;3.60;;;;;;;6.27;35.20;102405.40;1727556;83;21197;-46
2021/03/11 09:20:14;;;;;;;6.10;3.35;;;;;;;6.28;35.12;102411.04;1713117;83;21159;-46
2021/03/11 09:22:51;;;;;;;6.90;3.87;;;;;;;6.29;34.72;102397.25;1616280;87;21176;-46
2021/03/11 09:25:25;;;;;;;8.38;3.83;;;;;;;6.30;35.12;102400.31;1771566;79;23090;-47
2021/03/11 09:28:02;;;;;;;5.70;3.62;;;;;;;6.30;35.11;102396.44;1710543;83;21199;-47
2021/03/11 09:30:37;;;;;;;13.38;3.58;;;;;;;6.37;34.81;102394.41;1681117;85;21172;-46
2021/03/11 09:35:50;;;;;;;8.23;4.80;;;;;;;6.44;35.32;102391.55;1776193;79;23100;-46
2021/03/11 09:38:21;;;;;;;7.83;4.50;;;;;;;6.38;35.77;102385.83;1735271;82;21140;-46
2021/03/11 09:40:51;;;;;;;7.65;4.50;;;;;;;6.40;35.96;102380.27;1738951;82;21163;-46
2021/03/11 09:43:35;;;;;;;7.33;4.83;;;;;;;6.44;36.45;102389.84;1738202;82;21184;-46
2021/03/11 09:46:15;;;;;;;8.73;5.72;;;;;;;6.52;36.14;102390.86;1747694;82;21470;-46
2021/03/11 09:48:51;;;;;;;7.80;5.20;;;;;;;6.57;35.52;102387.94;1747736;82;21613;-46
2021/03/11 09:51:27;;;;;;;8.70;5.70;;;;;;;6.62;35.44;102385.86;1746507;82;21805;-46
2021/03/11 09:54:04;;;;;;;8.53;4.53;;;;;;;6.65;35.37;102388.11;1719467;82;21546;-46
2021/03/11 09:56:42;;;;;;;11.10;4.95;;;;;;;6.65;35.57;102383.35;1744534;82;21144;-47
2021/03/11 09:59:12;;;;;;;9.15;4.80;;;;;;;6.65;35.00;102383.35;1681711;84;21336;-47
2021/03/11 10:01:49;;;;;;;9.20;5.28;;;;;;;6.61;35.43;102375.08;1694193;84;21629;-47
2021/03/11 10:04:23;;;;;;;6.30;4.65;;;;;;;6.64;35.32;102373.83;1702465;84;21709;-46
2021/03/11 10:07:02;;;;;;;6.55;4.20;;;;;;;6.69;34.98;102367.05;1697359;84;21166;-46
2021/03/11 10:09:41;;;;;;;6.37;3.72;;;;;;;6.75;34.82;102358.11;1697467;84;21587;-48
2021/03/11 10:12:11;;;;;;;11.70;4.10;;;;;;;6.82;34.52;102369.05;1697295;84;21166;-47
2021/03/11 10:14:42;;;;;;;10.15;5.30;;;;;;;6.86;34.85;102370.84;1697219;84;21565;-47
2021/03/11 10:17:19;;;;;;;6.22;4.20;;;;;;;6.88;34.84;102370.45;1696879;84;21785;-47
2021/03/11 10:19:49;;;;;;;7.20;4.97;;;;;;;6.90;34.08;102370.05;1700747;84;21324;-47
2021/03/11 10:22:19;;;;;;;6.70;3.85;;;;;;;6.89;34.68;102373.47;1694964;84;21201;-48
2021/03/11 10:24:49;;;;;;;9.05;4.53;;;;;;;6.89;34.92;102373.47;1693362;84;21199;-48
2021/03/11 10:27:30;;;;;;;;;;;;;;;6.84;34.12;102367.35;1698390;84;21199;-46
2021/03/11 10:33:03;;;;;;;7.12;4.28;;;;;;;6.89;34.24;102367.00;1771633;79;23499;-46
2021/03/11 10:35:37;;;;;;;7.85;4.40;;;;;;;6.89;34.49;102378.64;1739612;81;21165;-46
2021/03/11 10:38:19;;;;;;;4.95;3.62;;;;;;;6.93;34.48;102367.09;1686470;84;21172;-46
2021/03/11 10:40:47;;;;;;;4.30;3.60;;;;;;;6.99;34.16;102367.62;1688361;84;21204;-46
2021/03/11 10:43:23;;;;;;;6.60;4.65;;;;;;;7.02;33.74;102368.98;1689942;84;21184;-46
2021/03/11 10:45:51;;;;;;;5.75;3.92;;;;;;;7.05;33.35;102365.14;1685098;84;21242;-47
2021/03/11 10:48:19;;;;;;;8.70;4.47;;;;;;;7.06;33.48;102369.08;1691714;84;21622;-46
2021/03/11 10:50:52;;;;;;;6.65;3.83;;;;;;;7.08;33.46;102369.09;1691556;84;21337;-47
2021/03/11 10:53:20;;;;;;;6.70;4.20;;;;;;;7.09;33.69;102370.85;1690688;84;21212;-46
2021/03/11 10:55:49;;;;;;;6.45;4.05;;;;;;;7.12;33.17;102373.06;1692035;84;21216;-46
2021/03/11 10:58:27;;;;;;;9.70;3.98;;;;;;;7.13;32.96;102367.03;1690679;84;21190;-46
2021/03/11 11:01:13;;;;;;;6.90;4.35;;;;;;;7.16;33.15;102373.98;1687393;84;21176;-46
2021/03/11 11:03:42;;;;;;;5.80;4.50;;;;;;;7.19;33.66;102369.72;1676200;84;21218;-46
2021/03/11 11:06:10;;;;;;;9.63;4.05;;;;;;;7.19;33.03;102374.05;1690762;84;21220;-46
2021/03/11 11:08:44;;;;;;;8.08;4.60;;;;;;;7.16;33.13;102375.27;1689750;84;21240;-46
2021/03/11 11:11:14;;;;;;;7.03;4.33;;;;;;;7.15;33.16;102386.49;1689068;84;21406;-46
2021/03/11 11:13:43;;;;;;;6.03;4.37;;;;;;;7.18;33.65;102373.59;1691690;84;21168;-47
2021/03/11 11:16:11;;;;;;;8.75;4.22;;;;;;;7.24;33.67;102380.16;1676012;84;21187;-47
2021/03/11 11:18:40;;;;;;;10.38;5.03;;;;;;;7.31;33.78;102378.14;1694221;84;21187;-46
2021/03/11 11:21:08;;;;;;;7.15;4.62;;;;;;;7.37;33.58;102370.48;1690664;84;21193;-46
2021/03/11 11:23:37;;;;;;;5.42;3.85;;;;;;;7.37;33.34;102379.55;1691497;84;21620;-46
2021/03/11 11:26:08;;;;;;;7.15;4.20;;;;;;;7.35;33.10;102370.88;1691395;84;21168;-46
2021/03/11 11:28:35;;;;;;;10.35;4.55;;;;;;;7.35;33.80;102367.88;1690088;84;21636;-47
2021/03/11 11:31:03;;;;;;;7.40;4.03;;;;;;;7.42;33.89;102370.11;1686472;84;21173;-46
2021/03/11 11:33:31;;;;;;;6.90;4.42;;;;;;;7.48;32.95;102377.14;1676314;85;21177;-47
2021/03/11 11:36:00;;;;;;;5.55;4.15;;;;;;;7.50;32.97;102365.08;1729019;82;21176;-46
2021/03/11 11:38:29;;;;;;;7.28;3.98;;;;;;;7.51;32.93;102363.80;1728394;82;21152;-46
2021/03/11 11:40:57;;;;;;;6.33;4.17;;;;;;;7.48;32.86;102374.09;1734434;82;21147;-47
2021/03/11 11:43:24;;;;;;;6.65;4.62;;;;;;;7.47;32.65;102380.14;1726931;82;21132;-46
2021/03/11 11:45:53;;;;;;;6.10;3.77;;;;;;;7.51;32.19;102377.17;1731348;82;21605;-46
2021/03/11 11:48:21;;;;;;;10.18;4.58;;;;;;;7.49;31.83;102381.04;1729986;82;21569;-48
2021/03/11 11:50:54;;;;;;;6.10;3.60;;;;;;;7.41;31.70;102380.05;1730129;82;21163;-48
2021/03/11 11:53:22;;;;;;;6.90;3.97;;;;;;;7.40;31.71;102387.34;1735555;82;21172;-46
2021/03/11 11:55:50;;;;;;;6.12;4.37;;;;;;;7.44;31.32;102389.14;1732145;82;21163;-47
2021/03/11 11:58:18;;;;;;;4.53;3.45;;;;;;;7.44;31.35;102386.55;1726438;82;21159;-47
2021/03/11 12:00:47;;;;;;;9.48;5.00;;;;;;;7.48;31.29;102390.94;1735263;82;21290;-47